Avon, Pennsylvania
Current Conditions -  °F | °C
As of 4:58 PM on Monday 20 Oct 2014 (Local Time) from KMUI Reporting Station
Few Clouds Few Clouds  
Wind Chill: 61°   Ceiling: Unl
Heat Index: 61°   Visibility: 10mi
Dew Point: 44°   Wind: 8mph
Humidity: 54%   Direction: 200°SSW
Pressure: 29.94"   Gusts: NA
Location:  40.2957°N, 76.4189°W
Report Text: KMUI 202058Z AUTO 20007KT 10SM FEW160 16/07 A2994 RMK AO2 SLP143 T01590066 56013 $
Loading
Personal Weather Stations






























Interactive Weather Map
Tropical Storm Tracking
New forecast layout! Learn more

10-Day Weather Forecast

Advertisements
Track Severe Weather on mobile